Yaquina — AEPD — position and weather

sailwx.info

Track history (hours):
 
Tides and Currents Weather Stations Pressure Air Temp Water Temp Dewpoint Dewpoint Depression Visibility Wind Speed Wind Dir Waves Ship Positions

Yaquina

Last reported at 2017-Oct-17 16:29 UTC. Time now 2017-Oct-17 16:45 UTC.
Position N 45°33' W 122°42'.

MMSI: 366969464.

Date/timePositionNaut miles runAvg speedWind from/ knotsBaromVisibWave heightAir tempDewpointWater temp
2017-Oct-17 16:29N 45°33' W 122°42'0 0.0
2017-Oct-17 15:59N 45°33' W 122°42'0 0.0
2017-Oct-17 15:29N 45°33' W 122°42'0 0.0
2017-Oct-17 14:41N 45°33' W 122°42'0 0.0
2017-Oct-17 14:29N 45°33' W 122°42'0 0.0
2017-Oct-17 13:59N 45°33' W 122°42'0 0.0
2017-Oct-17 13:23N 45°33' W 122°42'0 0.0
2017-Oct-17 12:56N 45°33' W 122°42'1 3.5
2017-Oct-17 12:30N 45°34' W 122°44'3 5.5
2017-Oct-17 12:01N 45°36' W 122°47'4 8.0
2017-Oct-17 11:31N 45°40' W 122°46'5 9.4
2017-Oct-17 11:00N 45°45' W 122°46'5 9.4
2017-Oct-17 10:30N 45°49' W 122°48'5 9.4
2017-Oct-17 10:00N 45°54' W 122°48'5 9.3
2017-Oct-17 09:30N 45°58' W 122°50'5 9.8
2017-Oct-17 09:00N 46°03' W 122°53'5 9.8
2017-Oct-17 08:30N 46°06' W 122°58'611.1
2017-Oct-17 08:00N 46°10' W 123°04'1 1.2
2017-Oct-17 07:30N 46°10' W 123°05'0 0.1
2017-Oct-17 07:00N 46°10' W 123°05'0 0.3
2017-Oct-17 06:30N 46°10' W 123°05'0 0.1
2017-Oct-17 06:00N 46°10' W 123°05'0 0.8
2017-Oct-17 05:31N 46°10' W 123°05'0 0.4
2017-Oct-17 05:00N 46°10' W 123°05'0 0.0
2017-Oct-17 04:30N 46°10' W 123°05'0 0.1
2017-Oct-17 04:00N 46°10' W 123°05'0 0.0
2017-Oct-17 03:30N 46°10' W 123°05'0 0.1
2017-Oct-17 03:00N 46°10' W 123°05'0 0.1
2017-Oct-17 02:30N 46°10' W 123°05'0 0.6
2017-Oct-17 02:00N 46°10' W 123°04'1 1.1
2017-Oct-17 01:30N 46°10' W 123°05'1 1.0
2017-Oct-17 01:01N 46°10' W 123°04'0 0.3
2017-Oct-17 00:30N 46°10' W 123°05'0 0.2
2017-Oct-17 00:01N 46°10' W 123°05'0 0.2
2017-Oct-16 23:31N 46°10' W 123°05'0 0.6
2017-Oct-16 23:00N 46°10' W 123°05'0 0.6
2017-Oct-16 22:30N 46°10' W 123°05'0 0.0
2017-Oct-16 22:00N 46°10' W 123°05'0 0.1
2017-Oct-16 21:30N 46°10' W 123°05'0 0.0
2017-Oct-16 21:00N 46°10' W 123°05'0 0.3
2017-Oct-16 20:31N 46°10' W 123°05'1 1.2
2017-Oct-16 20:00N 46°10' W 123°06'1 2.0
2017-Oct-16 19:30N 46°11' W 123°07'510.5
2017-Oct-16 19:00N 46°10' W 123°14'510.8
2017-Oct-16 18:30N 46°09' W 123°22'5 9.6
2017-Oct-16 18:00N 46°13' W 123°25'5 9.6
2017-Oct-16 17:30N 46°16' W 123°30'611.4
2017-Oct-16 17:00N 46°16' W 123°38'611.9
2017-Oct-16 16:30N 46°13' W 123°46'611.7
2017-Oct-16 16:00N 46°11' W 123°54'612.0
2017-Oct-16 15:30N 46°15' W 124°01'510.2
2017-Oct-16 15:00N 46°13' W 124°08'10 9.7
2017-Oct-16 14:00N 46°04' W 124°11'5 9.4
2017-Oct-16 13:30N 45°59' W 124°11'5 9.2
2017-Oct-16 13:00N 45°55' W 124°10'5 9.2
2017-Oct-16 12:30N 45°50' W 124°10'4 8.9
2017-Oct-16 12:00N 45°46' W 124°10'4 8.9
2017-Oct-16 11:30N 45°41' W 124°10'5 9.0
2017-Oct-16 11:00N 45°37' W 124°10'5 9.3
2017-Oct-16 10:30N 45°32' W 124°10'5 9.5
2017-Oct-16 10:00N 45°27' W 124°09'5 9.5
2017-Oct-16 09:30N 45°22' W 124°09'5 9.4
2017-Oct-16 09:00N 45°18' W 124°09'5 9.4
2017-Oct-16 08:30N 45°13' W 124°09'5 9.3
2017-Oct-16 08:00N 45°08' W 124°09'6 9.1
2017-Oct-16 07:22N 45°03' W 124°08'4 8.8
2017-Oct-16 06:56N 44°59' W 124°08'4 8.8
2017-Oct-16 06:27N 44°55' W 124°08'4 9.0
2017-Oct-16 05:59N 44°50' W 124°08'7 8.8
2017-Oct-16 05:10N 44°43' W 124°08'7 1.5
2017-Oct-16 00:34N 44°36' W 124°06'1 9.5
2017-Oct-16 00:28N 44°37' W 124°07'  
Track history (hours):
 
Tides and Currents Weather Stations Pressure Air Temp Water Temp Dewpoint Dewpoint Depression Visibility Wind Speed Wind Dir Waves Ship Positions

Yaquina

Last reported at 2017-Oct-17 16:29 UTC. Time now 2017-Oct-17 16:45 UTC.
Position N 45°33' W 122°42'.

MMSI: 366969464.

Date/timePositionNaut miles runAvg speedWind from/ knotsBaromVisibWave heightAir tempDewpointWater temp
2017-Oct-17 16:29N 45°33' W 122°42'0 0.0
2017-Oct-17 15:59N 45°33' W 122°42'0 0.0
2017-Oct-17 15:29N 45°33' W 122°42'0 0.0
2017-Oct-17 14:41N 45°33' W 122°42'0 0.0
2017-Oct-17 14:29N 45°33' W 122°42'0 0.0
2017-Oct-17 13:59N 45°33' W 122°42'0 0.0
2017-Oct-17 13:23N 45°33' W 122°42'0 0.0
2017-Oct-17 12:56N 45°33' W 122°42'1 3.5
2017-Oct-17 12:30N 45°34' W 122°44'3 5.5
2017-Oct-17 12:01N 45°36' W 122°47'4 8.0
2017-Oct-17 11:31N 45°40' W 122°46'5 9.4
2017-Oct-17 11:00N 45°45' W 122°46'5 9.4
2017-Oct-17 10:30N 45°49' W 122°48'5 9.4
2017-Oct-17 10:00N 45°54' W 122°48'5 9.3
2017-Oct-17 09:30N 45°58' W 122°50'5 9.8
2017-Oct-17 09:00N 46°03' W 122°53'5 9.8
2017-Oct-17 08:30N 46°06' W 122°58'611.1
2017-Oct-17 08:00N 46°10' W 123°04'1 1.2
2017-Oct-17 07:30N 46°10' W 123°05'0 0.1
2017-Oct-17 07:00N 46°10' W 123°05'0 0.3
2017-Oct-17 06:30N 46°10' W 123°05'0 0.1
2017-Oct-17 06:00N 46°10' W 123°05'0 0.8
2017-Oct-17 05:31N 46°10' W 123°05'0 0.4
2017-Oct-17 05:00N 46°10' W 123°05'0 0.0
2017-Oct-17 04:30N 46°10' W 123°05'0 0.1
2017-Oct-17 04:00N 46°10' W 123°05'0 0.0
2017-Oct-17 03:30N 46°10' W 123°05'0 0.1
2017-Oct-17 03:00N 46°10' W 123°05'0 0.1
2017-Oct-17 02:30N 46°10' W 123°05'0 0.6
2017-Oct-17 02:00N 46°10' W 123°04'1 1.1
2017-Oct-17 01:30N 46°10' W 123°05'1 1.0
2017-Oct-17 01:01N 46°10' W 123°04'0 0.3
2017-Oct-17 00:30N 46°10' W 123°05'0 0.2
2017-Oct-17 00:01N 46°10' W 123°05'0 0.2
2017-Oct-16 23:31N 46°10' W 123°05'0 0.6
2017-Oct-16 23:00N 46°10' W 123°05'0 0.6
2017-Oct-16 22:30N 46°10' W 123°05'0 0.0
2017-Oct-16 22:00N 46°10' W 123°05'0 0.1
2017-Oct-16 21:30N 46°10' W 123°05'0 0.0
2017-Oct-16 21:00N 46°10' W 123°05'0 0.3
2017-Oct-16 20:31N 46°10' W 123°05'1 1.2
2017-Oct-16 20:00N 46°10' W 123°06'1 2.0
2017-Oct-16 19:30N 46°11' W 123°07'510.5
2017-Oct-16 19:00N 46°10' W 123°14'510.8
2017-Oct-16 18:30N 46°09' W 123°22'5 9.6
2017-Oct-16 18:00N 46°13' W 123°25'5 9.6
2017-Oct-16 17:30N 46°16' W 123°30'611.4
2017-Oct-16 17:00N 46°16' W 123°38'611.9
2017-Oct-16 16:30N 46°13' W 123°46'611.7
2017-Oct-16 16:00N 46°11' W 123°54'612.0
2017-Oct-16 15:30N 46°15' W 124°01'510.2
2017-Oct-16 15:00N 46°13' W 124°08'10 9.7
2017-Oct-16 14:00N 46°04' W 124°11'5 9.4
2017-Oct-16 13:30N 45°59' W 124°11'5 9.2
2017-Oct-16 13:00N 45°55' W 124°10'5 9.2
2017-Oct-16 12:30N 45°50' W 124°10'4 8.9
2017-Oct-16 12:00N 45°46' W 124°10'4 8.9
2017-Oct-16 11:30N 45°41' W 124°10'5 9.0
2017-Oct-16 11:00N 45°37' W 124°10'5 9.3
2017-Oct-16 10:30N 45°32' W 124°10'5 9.5
2017-Oct-16 10:00N 45°27' W 124°09'5 9.5
2017-Oct-16 09:30N 45°22' W 124°09'5 9.4
2017-Oct-16 09:00N 45°18' W 124°09'5 9.4
2017-Oct-16 08:30N 45°13' W 124°09'5 9.3
2017-Oct-16 08:00N 45°08' W 124°09'6 9.1
2017-Oct-16 07:22N 45°03' W 124°08'4 8.8
2017-Oct-16 06:56N 44°59' W 124°08'4 8.8
2017-Oct-16 06:27N 44°55' W 124°08'4 9.0
2017-Oct-16 05:59N 44°50' W 124°08'7 8.8
2017-Oct-16 05:10N 44°43' W 124°08'7 1.5
2017-Oct-16 00:34N 44°36' W 124°06'1 9.5
2017-Oct-16 00:28N 44°37' W 124°07'  

Dump ship's entire track history